createdAt,value
2023-05-07T00:01:30.645Z,101483.56
2023-05-07T00:04:00.086Z,101495.16
2023-05-07T00:06:29.961Z,101496.09
2023-05-07T00:08:58.562Z,101493.59
2023-05-07T00:11:26.805Z,101490.22
2023-05-07T00:13:54.711Z,101483.19
2023-05-07T00:16:22.650Z,101487.72
2023-05-07T00:18:50.563Z,101487.88
2023-05-07T00:21:19.817Z,101484.47
2023-05-07T00:23:47.713Z,101484.13
2023-05-07T00:26:15.589Z,101499.44
2023-05-07T00:28:43.551Z,101498.66
2023-05-07T00:31:11.410Z,101492.25
2023-05-07T00:33:40.044Z,101495.56
2023-05-07T00:36:08.470Z,101499.00
2023-05-07T00:38:37.723Z,101498.16
2023-05-07T00:41:06.269Z,101507.06
2023-05-07T00:43:34.195Z,101503.59
2023-05-07T00:46:02.208Z,101502.66
2023-05-07T00:48:30.139Z,101503.69
2023-05-07T00:50:58.369Z,101505.75
2023-05-07T00:53:27.665Z,101507.66
2023-05-07T00:55:57.066Z,101506.19
2023-05-07T00:58:24.923Z,101509.97
2023-05-07T01:00:52.852Z,101511.84
2023-05-07T01:03:20.822Z,101512.72
2023-05-07T01:05:49.156Z,101523.44
2023-05-07T01:08:17.459Z,101512.81
2023-05-07T01:10:45.350Z,101516.63
2023-05-07T01:13:14.774Z,101515.28
2023-05-07T01:15:42.776Z,101519.31
2023-05-07T01:18:10.735Z,101524.56
2023-05-07T01:20:38.658Z,101526.22
2023-05-07T01:23:07.898Z,101529.50
2023-05-07T01:25:35.779Z,101535.50
2023-05-07T01:28:03.632Z,101529.88
2023-05-07T01:30:31.653Z,101530.50
2023-05-07T01:33:01.266Z,101533.88
2023-05-07T01:35:32.315Z,101539.19
2023-05-07T01:38:00.197Z,101545.34
2023-05-07T01:40:29.446Z,101545.22
2023-05-07T01:42:57.311Z,101542.47
2023-05-07T01:45:25.222Z,101549.66
2023-05-07T01:47:53.166Z,101552.25
2023-05-07T01:50:21.205Z,101555.72
2023-05-07T01:52:49.300Z,101555.72
2023-05-07T01:55:17.178Z,101554.59
2023-05-07T01:57:46.677Z,101561.63
2023-05-07T02:00:14.977Z,101558.00
2023-05-07T02:02:43.022Z,101567.84
2023-05-07T02:05:11.218Z,101566.09
2023-05-07T02:07:39.093Z,101559.09
2023-05-07T02:10:08.267Z,101561.97
2023-05-07T02:12:36.303Z,101565.50
2023-05-07T02:15:06.632Z,101566.28
2023-05-07T02:17:34.968Z,101559.19
2023-05-07T02:20:02.919Z,101563.50
2023-05-07T02:22:31.323Z,101564.19
2023-05-07T02:24:59.259Z,101558.00
2023-05-07T02:27:27.109Z,101556.09
2023-05-07T02:29:54.948Z,101559.63
2023-05-07T02:32:24.342Z,101563.19
2023-05-07T02:34:52.651Z,101553.47
2023-05-07T02:37:20.567Z,101563.19
2023-05-07T02:39:48.439Z,101564.81
2023-05-07T02:42:16.330Z,101571.94
2023-05-07T02:44:44.172Z,101571.06
2023-05-07T02:47:14.089Z,101571.94
2023-05-07T02:49:43.670Z,101577.22
2023-05-07T02:52:11.564Z,101579.03
2023-05-07T02:54:39.411Z,101582.69
2023-05-07T02:57:07.287Z,101586.91
2023-05-07T02:59:35.162Z,101580.50
2023-05-07T03:02:03.046Z,101592.97
2023-05-07T03:04:31.155Z,101592.03
2023-05-07T03:07:00.451Z,101589.34
2023-05-07T03:09:28.356Z,101583.97
2023-05-07T03:11:56.422Z,101584.03
2023-05-07T03:14:24.278Z,101580.59
2023-05-07T03:16:52.215Z,101581.44
2023-05-07T03:19:20.101Z,101572.63
2023-05-07T03:21:48.335Z,101587.69
2023-05-07T03:24:17.678Z,101583.25
2023-05-07T03:26:45.580Z,101588.56
2023-05-07T03:29:13.614Z,101579.56
2023-05-07T03:31:41.512Z,101584.91
2023-05-07T03:34:09.452Z,101591.31
2023-05-07T03:36:37.386Z,101592.44
2023-05-07T03:39:05.322Z,101596.25
2023-05-07T03:41:34.585Z,101597.91
2023-05-07T03:44:02.470Z,101602.47
2023-05-07T03:46:30.366Z,101595.31
2023-05-07T03:48:58.258Z,101597.03
2023-05-07T03:51:26.424Z,101600.59
2023-05-07T03:53:54.740Z,101599.72
2023-05-07T03:56:22.977Z,101589.06
2023-05-07T03:58:52.266Z,101597.72
2023-05-07T04:01:20.143Z,101589.59
2023-05-07T04:03:48.600Z,101593.06
2023-05-07T04:06:18.388Z,101594.63
2023-05-07T04:08:46.307Z,101589.16
2023-05-07T04:11:14.177Z,101592.56
2023-05-07T04:13:42.059Z,101601.53
2023-05-07T04:16:11.349Z,101602.41
2023-05-07T04:18:39.272Z,101602.50
2023-05-07T04:21:07.494Z,101602.50
2023-05-07T04:23:35.392Z,101610.47
2023-05-07T04:26:04.207Z,101617.75
2023-05-07T04:28:32.084Z,101613.31
2023-05-07T04:30:59.971Z,101611.50
2023-05-07T04:33:29.212Z,101622.25
2023-05-07T04:35:57.472Z,101620.44
2023-05-07T04:38:25.585Z,101617.84
2023-05-07T04:40:54.010Z,101613.25
2023-05-07T04:43:21.830Z,101623.13
2023-05-07T04:45:50.381Z,101621.38
2023-05-07T04:48:20.290Z,101622.34
2023-05-07T04:50:51.015Z,101623.22
2023-05-07T04:53:19.016Z,101625.78
2023-05-07T04:55:47.049Z,101625.69
2023-05-07T04:58:14.920Z,101625.69
2023-05-07T05:00:43.433Z,101626.66
2023-05-07T05:03:11.437Z,101615.78
2023-05-07T05:05:39.414Z,101614.84
2023-05-07T05:08:08.701Z,101632.59
2023-05-07T05:10:36.605Z,101622.66
2023-05-07T05:13:04.538Z,101626.00
2023-05-07T05:15:33.866Z,101625.06
2023-05-07T05:18:01.978Z,101625.94
2023-05-07T05:20:29.879Z,101634.78
2023-05-07T05:22:57.746Z,101636.69
2023-05-07T05:25:27.000Z,101638.41
2023-05-07T05:27:54.914Z,101640.22
2023-05-07T05:30:23.230Z,101647.44
2023-05-07T05:32:51.336Z,101643.69
2023-05-07T05:35:19.312Z,101647.25
2023-05-07T05:37:47.173Z,101638.25
2023-05-07T05:40:15.084Z,101651.56
2023-05-07T05:42:44.460Z,101656.06
2023-05-07T05:45:12.658Z,101663.19
2023-05-07T05:47:40.914Z,101663.09
2023-05-07T05:50:10.415Z,101668.41
2023-05-07T05:52:38.469Z,101657.81
2023-05-07T05:55:07.201Z,101662.41
2023-05-07T05:57:35.039Z,101655.22
2023-05-07T06:00:05.359Z,101655.81
2023-05-07T06:02:33.295Z,101657.22
2023-05-07T06:05:01.350Z,101653.34
2023-05-07T06:07:29.475Z,101657.41
2023-05-07T06:09:57.447Z,101657.97
2023-05-07T06:12:25.303Z,101659.41
2023-05-07T06:14:53.221Z,101661.94
2023-05-07T06:17:22.498Z,101667.22
2023-05-07T06:19:50.372Z,101665.41
2023-05-07T06:22:18.219Z,101664.28
2023-05-07T06:24:46.075Z,101668.59
2023-05-07T06:27:13.934Z,101664.94
2023-05-07T06:29:41.894Z,101673.63
2023-05-07T06:32:10.130Z,101669.03
2023-05-07T06:34:39.536Z,101675.13
2023-05-07T06:37:07.569Z,101678.56
2023-05-07T06:39:35.455Z,101678.47
2023-05-07T06:42:03.667Z,101681.25
2023-05-07T06:44:31.558Z,101687.41
2023-05-07T06:46:59.614Z,101685.41
2023-05-07T06:49:27.571Z,101692.34
2023-05-07T06:51:56.821Z,101692.28
2023-05-07T06:54:24.678Z,101698.34
2023-05-07T06:56:52.585Z,101697.31
2023-05-07T06:59:21.356Z,101699.66
2023-05-07T07:01:49.492Z,101699.31
2023-05-07T07:04:17.429Z,101705.47
2023-05-07T07:06:45.507Z,101706.25
2023-05-07T07:09:14.759Z,101708.84
2023-05-07T07:11:42.602Z,101710.47
2023-05-07T07:14:10.656Z,101726.34
2023-05-07T07:16:38.681Z,101713.50
2023-05-07T07:19:06.695Z,101718.53
2023-05-07T07:21:34.625Z,101722.94
2023-05-07T07:24:02.524Z,101731.09
2023-05-07T07:26:32.273Z,101731.19
2023-05-07T07:29:00.168Z,101728.31
2023-05-07T07:31:28.316Z,101724.56
2023-05-07T07:33:56.425Z,101724.56
2023-05-07T07:36:29.453Z,101731.59
2023-05-07T07:39:09.617Z,101737.84
2023-05-07T07:41:38.870Z,101742.97
2023-05-07T07:44:08.626Z,101740.09
2023-05-07T07:46:36.796Z,101734.72
2023-05-07T07:49:04.885Z,101745.28
2023-05-07T07:51:32.733Z,101747.03
2023-05-07T07:54:01.905Z,101757.88
2023-05-07T07:56:29.795Z,101758.13
2023-05-07T07:58:59.033Z,101760.56
2023-05-07T08:01:27.054Z,101761.94
2023-05-07T08:03:55.409Z,101774.25
2023-05-07T08:06:23.376Z,101778.00
2023-05-07T08:08:51.332Z,101786.50
2023-05-07T08:11:19.234Z,101788.69
2023-05-07T08:13:47.898Z,101782.03
2023-05-07T08:16:17.244Z,101796.41
2023-05-07T08:18:45.126Z,101800.25
2023-05-07T08:21:13.084Z,101797.13
2023-05-07T08:23:40.983Z,101800.00
2023-05-07T08:26:10.715Z,101806.50
2023-05-07T08:28:38.542Z,101764.91
2023-05-07T08:31:06.515Z,101807.78
2023-05-07T08:33:35.784Z,101807.88
2023-05-07T08:36:03.659Z,101801.47
2023-05-07T08:38:31.551Z,101799.81
2023-05-07T08:40:59.435Z,101807.63
2023-05-07T08:43:28.538Z,101790.78
2023-05-07T08:45:56.667Z,101792.44
2023-05-07T08:48:26.105Z,101800.38
2023-05-07T08:50:55.383Z,101813.53
2023-05-07T08:53:23.255Z,101807.47
2023-05-07T08:55:51.140Z,101811.72
2023-05-07T08:58:19.107Z,101811.34
2023-05-07T09:00:47.019Z,101811.75
2023-05-07T09:03:15.472Z,101807.91
2023-05-07T09:05:44.797Z,101809.19
2023-05-07T09:08:16.935Z,101818.63
2023-05-07T09:10:44.793Z,101821.31
2023-05-07T09:13:14.201Z,101827.66
2023-05-07T09:15:42.250Z,101832.88
2023-05-07T09:18:10.137Z,101829.88
2023-05-07T09:20:38.703Z,101824.13
2023-05-07T09:23:06.596Z,101817.00
2023-05-07T09:25:37.294Z,101812.19
2023-05-07T09:28:05.588Z,101809.91
2023-05-07T09:30:34.175Z,101784.41
2023-05-07T09:33:03.710Z,101810.78
2023-05-07T09:35:32.215Z,101803.53
2023-05-07T09:38:03.918Z,101815.06
2023-05-07T09:40:33.109Z,101828.34
2023-05-07T09:43:12.752Z,101836.63
2023-05-07T09:45:40.783Z,101839.28
2023-05-07T09:48:09.068Z,101838.22
2023-05-07T09:50:38.823Z,101833.13
2023-05-07T09:53:06.981Z,101849.47
2023-05-07T09:55:35.195Z,101844.53
2023-05-07T09:58:03.709Z,101855.31
2023-05-07T10:00:33.117Z,101848.84
2023-05-07T10:03:01.216Z,101852.00
2023-05-07T10:05:29.194Z,101856.09
2023-05-07T10:07:58.291Z,101850.63
2023-05-07T10:10:26.441Z,101839.56
2023-05-07T10:12:54.377Z,101853.06
2023-05-07T10:15:22.296Z,101856.66
2023-05-07T10:17:51.804Z,101858.59
2023-05-07T10:20:19.885Z,101865.63
2023-05-07T10:22:49.529Z,101862.50
2023-05-07T10:25:20.297Z,101867.78
2023-05-07T10:27:48.428Z,101871.38
2023-05-07T10:30:27.407Z,101870.19
2023-05-07T10:32:57.682Z,101871.38
2023-05-07T10:35:26.988Z,101880.84
2023-05-07T10:37:54.831Z,101878.03
2023-05-07T10:40:22.735Z,101876.97
2023-05-07T10:42:57.858Z,101858.91
2023-05-07T10:45:26.594Z,101880.97
2023-05-07T10:50:43.724Z,101877.31
2023-05-07T10:53:27.585Z,101885.41
2023-05-07T10:56:38.883Z,101892.44
2023-05-07T10:59:42.922Z,101894.41
2023-05-07T11:02:12.423Z,101890.84
2023-05-07T11:04:42.821Z,101882.22
2023-05-07T11:07:40.202Z,101887.81
2023-05-07T11:10:09.245Z,101891.06
2023-05-07T11:13:04.017Z,101896.97
2023-05-07T11:15:43.029Z,101896.75
2023-05-07T11:18:11.182Z,101900.97
2023-05-07T11:21:05.999Z,101897.81
2023-05-07T11:23:59.707Z,101898.66
2023-05-07T11:26:28.043Z,101896.63
2023-05-07T11:28:56.277Z,101894.28
2023-05-07T11:31:29.319Z,101885.94
2023-05-07T11:33:57.317Z,101896.41
2023-05-07T11:36:27.933Z,101890.97
2023-05-07T11:38:55.891Z,101892.69
2023-05-07T11:41:23.828Z,101883.81
2023-05-07T11:44:01.560Z,101892.06
2023-05-07T11:46:30.379Z,101893.44
2023-05-07T11:48:58.504Z,101896.03
2023-05-07T11:51:28.258Z,101892.91
2023-05-07T11:53:56.185Z,101910.44
2023-05-07T11:56:24.038Z,101907.50
2023-05-07T11:58:53.184Z,101906.50
2023-05-07T12:01:21.149Z,101898.72
2023-05-07T12:03:49.176Z,101901.19
2023-05-07T12:06:17.969Z,101899.19
2023-05-07T12:08:48.302Z,101900.19
2023-05-07T12:11:18.637Z,101911.41
2023-05-07T12:13:47.080Z,101915.44
2023-05-07T12:16:15.064Z,101917.13
2023-05-07T12:18:43.124Z,101910.34
2023-05-07T12:21:11.856Z,101913.44
2023-05-07T12:23:39.823Z,101914.09
2023-05-07T12:26:09.058Z,101937.06
2023-05-07T12:28:40.693Z,101928.38
2023-05-07T12:31:08.869Z,101932.00
2023-05-07T12:33:37.012Z,101924.94
2023-05-07T12:36:06.302Z,101922.75
2023-05-07T12:38:37.371Z,101925.00
2023-05-07T12:41:05.459Z,101925.06
2023-05-07T12:43:34.780Z,101926.78
2023-05-07T12:46:04.594Z,101925.50
2023-05-07T12:48:33.146Z,101915.81
2023-05-07T12:51:01.954Z,101924.16
2023-05-07T12:53:32.180Z,101927.38
2023-05-07T12:56:01.131Z,101936.84
2023-05-07T12:58:29.645Z,101926.59
2023-05-07T13:01:01.009Z,101936.81
2023-05-07T13:03:29.927Z,101926.66
2023-05-07T13:06:00.041Z,101934.09
2023-05-07T13:08:29.057Z,101941.53
2023-05-07T13:10:57.241Z,101926.19
2023-05-07T13:13:25.679Z,101925.84
2023-05-07T13:15:53.651Z,101930.44
2023-05-07T13:18:23.184Z,101930.41
2023-05-07T13:20:51.291Z,101935.25
2023-05-07T13:23:19.261Z,101935.59
2023-05-07T13:25:47.143Z,101931.72
2023-05-07T13:28:14.994Z,101936.63
2023-05-07T13:30:42.885Z,101939.97
2023-05-07T13:33:11.080Z,101939.97
2023-05-07T13:35:40.575Z,101946.72
2023-05-07T13:38:08.400Z,101939.09
2023-05-07T13:40:36.311Z,101948.44
2023-05-07T13:43:04.384Z,101925.41
2023-05-07T13:45:32.262Z,101930.09
2023-05-07T13:48:00.364Z,101927.44
2023-05-07T13:50:30.783Z,101922.78
2023-05-07T13:53:00.104Z,101932.97
2023-05-07T13:55:28.856Z,101934.28
2023-05-07T13:57:58.033Z,101924.63
2023-05-07T14:00:26.121Z,101928.00
2023-05-07T14:02:54.222Z,101923.72
2023-05-07T14:05:24.156Z,101927.84
2023-05-07T14:07:52.933Z,101936.28
2023-05-07T14:10:22.291Z,101925.06
2023-05-07T14:12:50.198Z,101939.09
2023-05-07T14:15:18.228Z,101929.38
2023-05-07T14:17:46.235Z,101940.75
2023-05-07T14:20:14.388Z,101937.66
2023-05-07T14:22:42.462Z,101933.66
2023-05-07T14:25:11.582Z,101932.22
2023-05-07T14:27:40.921Z,101930.66
2023-05-07T14:30:10.173Z,101929.41
2023-05-07T14:32:38.237Z,101929.91
2023-05-07T14:35:06.726Z,101936.69
2023-05-07T14:37:34.601Z,101928.63
2023-05-07T14:40:02.531Z,101926.56
2023-05-07T14:42:30.440Z,101924.31
2023-05-07T14:44:59.924Z,101930.50
2023-05-07T14:47:27.876Z,101885.81
2023-05-07T14:49:56.168Z,101937.13
2023-05-07T14:52:24.100Z,101923.75
2023-05-07T14:54:52.021Z,101923.59
2023-05-07T14:57:20.395Z,101921.88
2023-05-07T14:59:49.505Z,101932.47
2023-05-07T15:02:21.207Z,101930.22
2023-05-07T15:04:49.737Z,101934.47
2023-05-07T15:07:18.585Z,101935.63
2023-05-07T15:09:46.799Z,101932.91
2023-05-07T15:12:14.882Z,101932.66
2023-05-07T15:14:43.232Z,101935.63
2023-05-07T15:17:11.101Z,101930.78
2023-05-07T15:19:40.683Z,101936.09
2023-05-07T15:22:08.573Z,101930.78
2023-05-07T15:24:36.421Z,101922.63
2023-05-07T15:27:04.796Z,101936.50
2023-05-07T15:29:32.947Z,101920.78
2023-05-07T15:32:00.930Z,101926.25
2023-05-07T15:34:28.884Z,101915.75
2023-05-07T15:36:59.064Z,101920.97
2023-05-07T15:39:27.033Z,101923.03
2023-05-07T15:41:54.928Z,101918.72
2023-05-07T15:44:22.799Z,101922.16
2023-05-07T15:46:50.717Z,101917.38
2023-05-07T15:49:18.719Z,101928.47
2023-05-07T15:51:46.593Z,101916.06
2023-05-07T15:54:17.959Z,101915.78
2023-05-07T15:56:45.810Z,101913.03
2023-05-07T15:59:15.484Z,101924.09
2023-05-07T16:01:43.676Z,101918.44
2023-05-07T16:04:11.845Z,101929.41
2023-05-07T16:06:41.221Z,101925.44
2023-05-07T16:09:10.316Z,101932.84
2023-05-07T16:11:39.553Z,101930.47
2023-05-07T16:14:07.474Z,101936.19
2023-05-07T16:16:35.422Z,101934.19
2023-05-07T16:19:03.282Z,101941.44
2023-05-07T16:21:31.540Z,101945.19
2023-05-07T16:23:59.460Z,101947.13
2023-05-07T16:26:27.465Z,101931.72
2023-05-07T16:28:56.999Z,101942.53
2023-05-07T16:31:25.858Z,101935.31
2023-05-07T16:33:53.754Z,101940.28
2023-05-07T16:36:21.773Z,101933.38
2023-05-07T16:38:49.685Z,101927.50
2023-05-07T16:41:17.602Z,101933.56
2023-05-07T16:43:45.473Z,101936.94
2023-05-07T16:46:14.786Z,101941.03
2023-05-07T16:48:43.222Z,101927.91
2023-05-07T16:51:11.128Z,101931.66
2023-05-07T16:53:39.035Z,101926.56
2023-05-07T16:56:07.046Z,101928.13
2023-05-07T16:58:34.909Z,101931.56
2023-05-07T17:01:03.857Z,101933.81
2023-05-07T17:03:33.366Z,101930.03
2023-05-07T17:06:01.303Z,101925.59
2023-05-07T17:08:29.218Z,101937.44
2023-05-07T17:10:57.155Z,101934.97
2023-05-07T17:13:25.252Z,101940.09
2023-05-07T17:15:53.504Z,101933.88
2023-05-07T17:18:21.406Z,101947.91
2023-05-07T17:20:50.732Z,101946.00
2023-05-07T17:23:18.724Z,101951.72
2023-05-07T17:25:46.579Z,101947.84
2023-05-07T17:28:14.530Z,101951.22
2023-05-07T17:30:42.596Z,101958.13
2023-05-07T17:33:21.043Z,101954.19
2023-05-07T17:35:51.509Z,101952.47
2023-05-07T17:38:19.413Z,101947.91
2023-05-07T17:40:47.314Z,101954.09
2023-05-07T17:43:15.300Z,101951.13
2023-05-07T17:45:43.238Z,101948.03
2023-05-07T17:48:11.177Z,101946.41
2023-05-07T17:50:39.150Z,101946.31
2023-05-07T17:53:09.903Z,101940.97
2023-05-07T17:55:40.465Z,101945.31
2023-05-07T17:58:09.868Z,101944.78
2023-05-07T18:00:37.806Z,101943.81
2023-05-07T18:03:06.138Z,101937.47
2023-05-07T18:05:36.783Z,101936.38
2023-05-07T18:08:04.746Z,101940.97
2023-05-07T18:10:33.979Z,101936.31
2023-05-07T18:13:01.887Z,101943.00
2023-05-07T18:15:29.851Z,101945.34
2023-05-07T18:17:57.757Z,101937.84
2023-05-07T18:20:32.515Z,101942.84
2023-05-07T18:23:00.654Z,101939.91
2023-05-07T18:25:28.513Z,101934.31
2023-05-07T18:27:57.796Z,101935.50
2023-05-07T18:30:25.645Z,101948.53
2023-05-07T18:32:53.619Z,101946.31
2023-05-07T18:35:21.485Z,101953.00
2023-05-07T18:37:49.351Z,101953.31
2023-05-07T18:40:17.455Z,101963.53
2023-05-07T18:42:45.350Z,101959.44
2023-05-07T18:45:15.007Z,101955.25
2023-05-07T18:47:42.906Z,101965.63
2023-05-07T18:50:11.802Z,101962.50
2023-05-07T18:52:39.921Z,101953.69
2023-05-07T18:55:09.574Z,101968.09
2023-05-07T18:57:37.428Z,101955.34
2023-05-07T19:00:09.304Z,101958.78
2023-05-07T19:02:39.352Z,101943.50
2023-05-07T19:05:08.141Z,101944.06
2023-05-07T19:07:36.049Z,101952.31
2023-05-07T19:10:06.012Z,101961.44
2023-05-07T19:12:34.206Z,101964.69
2023-05-07T19:15:02.251Z,101908.28
2023-05-07T19:17:30.308Z,101951.94
2023-05-07T19:19:59.647Z,101957.63
2023-05-07T19:22:27.549Z,101970.22
2023-05-07T19:24:55.422Z,101973.06
2023-05-07T19:27:23.322Z,101968.72
2023-05-07T19:29:51.223Z,101977.97
2023-05-07T19:32:20.159Z,101974.50
2023-05-07T19:34:48.070Z,101980.06
2023-05-07T19:37:17.337Z,101984.75
2023-05-07T19:39:45.188Z,101987.63
2023-05-07T19:42:14.205Z,101987.22
2023-05-07T19:44:42.148Z,101987.56
2023-05-07T19:47:10.052Z,101988.25
2023-05-07T19:49:37.968Z,101992.50
2023-05-07T19:52:06.298Z,101991.56
2023-05-07T19:54:35.546Z,101991.47
2023-05-07T19:57:03.433Z,101995.81
2023-05-07T19:59:31.533Z,101985.03
2023-05-07T20:01:59.574Z,101987.91
2023-05-07T20:04:31.859Z,101996.00
2023-05-07T20:07:00.070Z,101996.16
2023-05-07T20:09:27.918Z,102004.34
2023-05-07T20:11:57.740Z,102007.09
2023-05-07T20:14:25.727Z,102012.69
2023-05-07T20:16:53.819Z,102019.88
2023-05-07T20:19:21.698Z,102015.44
2023-05-07T20:21:49.586Z,102011.03
2023-05-07T20:24:19.190Z,102004.66
2023-05-07T20:26:47.150Z,101997.56
2023-05-07T20:29:16.421Z,102003.91
2023-05-07T20:31:44.396Z,102009.47
2023-05-07T20:34:12.389Z,102013.28
2023-05-07T20:36:40.258Z,102014.31
2023-05-07T20:39:08.357Z,102014.31
2023-05-07T20:41:36.222Z,102013.47
2023-05-07T20:44:04.107Z,102015.19
2023-05-07T20:46:33.374Z,102012.69
2023-05-07T20:49:01.499Z,102011.03
2023-05-07T20:51:29.357Z,102014.75
2023-05-07T20:53:57.227Z,102010.50
2023-05-07T20:56:25.140Z,102006.31
2023-05-07T20:58:53.244Z,102013.69
2023-05-07T21:01:21.129Z,102017.50
2023-05-07T21:03:53.871Z,102021.28
2023-05-07T21:06:21.787Z,102015.22
2023-05-07T21:08:49.632Z,102015.56
2023-05-07T21:11:18.148Z,102020.19
2023-05-07T21:13:46.114Z,102023.03
2023-05-07T21:16:14.049Z,102025.97
2023-05-07T21:18:42.015Z,102033.25
2023-05-07T21:21:11.419Z,102033.66
2023-05-07T21:23:39.320Z,102034.63
2023-05-07T21:26:07.402Z,102028.53
2023-05-07T21:28:35.247Z,102030.53
2023-05-07T21:31:03.098Z,102038.06
2023-05-07T21:33:30.958Z,102034.72
2023-05-07T21:35:58.871Z,102031.41
2023-05-07T21:38:28.206Z,102029.78
2023-05-07T21:40:56.070Z,102029.28
2023-05-07T21:43:23.944Z,102021.56
2023-05-07T21:45:51.849Z,102029.63
2023-05-07T21:48:22.076Z,102017.41
2023-05-07T21:50:50.002Z,102022.16
2023-05-07T21:53:17.880Z,102030.44
2023-05-07T21:55:47.087Z,102030.53
2023-05-07T21:58:15.119Z,102029.97
2023-05-07T22:00:43.013Z,102030.31
2023-05-07T22:03:10.971Z,102019.00
2023-05-07T22:05:38.934Z,102024.75
2023-05-07T22:08:06.828Z,102017.88
2023-05-07T22:10:34.836Z,102004.75
2023-05-07T22:13:04.203Z,102000.41
2023-05-07T22:15:35.274Z,102001.44
2023-05-07T22:18:05.328Z,101998.81
2023-05-07T22:20:33.239Z,101992.66
2023-05-07T22:23:01.132Z,101994.53
2023-05-07T22:25:32.500Z,101995.56
2023-05-07T22:28:00.483Z,101994.63
2023-05-07T22:30:29.884Z,101991.16
2023-05-07T22:32:57.786Z,101990.28
2023-05-07T22:35:25.708Z,101984.13
2023-05-07T22:37:53.627Z,101992.19
2023-05-07T22:40:21.603Z,101992.22
2023-05-07T22:42:49.478Z,101995.88
2023-05-07T22:45:17.323Z,101986.06
2023-05-07T22:47:46.665Z,101987.81
2023-05-07T22:50:14.701Z,101982.59
2023-05-07T22:52:42.963Z,101980.78
2023-05-07T22:55:11.171Z,101984.41
2023-05-07T22:57:39.062Z,101984.34
2023-05-07T23:00:08.017Z,101983.47
2023-05-07T23:02:36.183Z,101977.22
2023-05-07T23:05:06.054Z,101981.72
2023-05-07T23:07:33.933Z,101980.69
2023-05-07T23:10:01.860Z,101989.84
2023-05-07T23:12:29.704Z,101977.41
2023-05-07T23:14:57.807Z,101986.06
2023-05-07T23:17:25.793Z,101980.78
2023-05-07T23:19:53.753Z,101978.19
2023-05-07T23:22:22.981Z,101980.88
2023-05-07T23:24:50.883Z,101978.34
2023-05-07T23:27:18.737Z,101984.56
2023-05-07T23:29:46.968Z,101974.78
2023-05-07T23:32:14.849Z,101970.41
2023-05-07T23:34:42.732Z,101965.94
2023-05-07T23:37:10.666Z,101962.38
2023-05-07T23:39:39.990Z,101960.63
2023-05-07T23:42:07.907Z,101953.50
2023-05-07T23:44:35.781Z,101958.88
2023-05-07T23:47:03.683Z,101953.59
2023-05-07T23:49:31.601Z,101952.72
2023-05-07T23:51:59.495Z,101946.47
2023-05-07T23:54:27.359Z,101946.66
2023-05-07T23:56:56.605Z,101941.34
2023-05-07T23:59:24.504Z,101937.22
